Aviation Digital Data Service (ADDS)

Output produced by METARs form (0643 UTC 24 August 2016)
found at http://aviationweather.gov/adds/metars/
 
KFDY 240520Z 2406/2506 16006KT P6SM SCT120 BKN250 
     FM241500 18010KT P6SM SCT050 BKN250 
     FM241800 18012KT P6SM BKN050 OVC120 
     FM242000 20012KT P6SM VCSH OVC050 
     TEMPO 2422/2502 4SM TSRA OVC025CB 
     FM250200 20008KT 5SM -SHRA BR OVC035